This is the latest recevied weather packets stored in our database for station/object N8VDS-10. If no packets are shown the sender has not sent any weather packets the latest 1 day(s).
| Time | Temp. | Humidity | Pressure | Rain* | Wind** | Luminosity | Snow |
|---|---|---|---|---|---|---|---|
| 1778088884 | 9.44° C | 48% | 1016.7 hPa | 0 mm | - | 247 W/m² | - |
| 1778088278 | 8.89° C | 49% | 1016.8 hPa | 0 mm | - | 192 W/m² | - |
| 1778087672 | 9.44° C | 49% | 1016.6 hPa | 0 mm | - | 173 W/m² | - |
| 1778087066 | 9.44° C | 51% | 1016.5 hPa | 0 mm | - | 359 W/m² | - |
| 1778086463 | 10° C | 49% | 1016.6 hPa | 0 mm | - | 269 W/m² | - |
| 1778085554 | 9.44° C | 49% | 1016.8 hPa | 0 mm | - | 206 W/m² | - |
| 1778084943 | 8.89° C | 54% | 1016.8 hPa | 0 mm | - | 623 W/m² | - |
| 1778084338 | 8.33° C | 54% | 1017 hPa | 0 mm | - | 624 W/m² | - |
| 1778083430 | 8.89° C | 53% | 1016.8 hPa | 0 mm | - | 132 W/m² | - |
| 1778083129 | 8.89° C | 55% | 1016.9 hPa | 0 mm | - | 579 W/m² | - |
| 1778080189 | 7.78° C | 59% | 1016.6 hPa | 0 mm | - | 649 W/m² | - |
| 1778079885 | 7.78° C | 58% | 1016.7 hPa | 0 mm | - | 713 W/m² | - |
| 1778078672 | 8.89° C | 57% | 1016.5 hPa | 0 mm | - | 424 W/m² | - |
| 1778078371 | 8.33° C | 59% | 1016.3 hPa | 0 mm | - | 628 W/m² | - |
| 1778077766 | 7.78° C | 59% | 1016.4 hPa | 0 mm | - | 491 W/m² | - |
| 1778076254 | 7.22° C | 56% | 1015.9 hPa | 0 mm | - | 398 W/m² | - |
| 1778075344 | 7.22° C | 56% | 1016.1 hPa | 0 mm | - | 327 W/m² | - |
| 1778074737 | 7.22° C | 56% | 1015.9 hPa | 0 mm | - | 406 W/m² | - |
| 1778074434 | 6.67° C | 57% | 1016 hPa | 0 mm | - | 297 W/m² | - |
| 1778073828 | 6.11° C | 59% | 1016 hPa | 0 mm | - | 329 W/m² | - |
| 1778073222 | 6.67° C | 58% | 1015.9 hPa | 0 mm | - | 315 W/m² | - |
| 1778071710 | 5.56° C | 64% | 1015.6 hPa | 0 mm | - | 242 W/m² | - |
| 1778071104 | 5° C | 68% | 1015.6 hPa | 0 mm | - | 214 W/m² | - |
| 1778070196 | 5° C | 67% | 1015.7 hPa | 0 mm | - | 177 W/m² | - |
| 1778069591 | 5° C | 67% | 1015.2 hPa | 0 mm | - | 172 W/m² | - |
* Rain latest hour (hover to see other rain measurements)
** Current wind speed in m/s (hover to see current wind gust speed)